Time;durP1;ratioP1;P1;durP2;ratioP2;P2;SDS_P1;SDS_P2;PMS_P1;PMS_P2;Temp;Humidity;BMP_temperature;BMP_pressure;BME280_temperature;BME280_humidity;BME280_pressure;Samples;Min_cycle;Max_cycle;Signal;HPM_P1;HPM_P2
2022/11/01 00:03:12;;;;;;;16.63;7.65;;;;;;;;;;10029645;28;20508;-66
2022/11/01 00:08:05;;;;;;;12.55;8.15;;;;;;;;;;10029294;28;20132;-65
2022/11/01 00:12:58;;;;;;;14.02;8.55;;;;;;;;;;10029188;28;20050;-65
2022/11/01 00:17:53;;;;;;;17.63;7.97;;;;;;;;;;10028631;28;20521;-66
2022/11/01 00:22:47;;;;;;;12.98;8.32;;;;;;;;;;10029020;28;20505;-65
2022/11/01 00:27:41;;;;;;;12.00;7.43;;;;;;;;;;10029528;28;20128;-66
2022/11/01 00:32:34;;;;;;;11.98;7.53;;;;;;;;;;10028049;28;20521;-66
2022/11/01 00:37:29;;;;;;;13.70;7.60;;;;;;;;;;10027991;28;20097;-66
2022/11/01 00:42:23;;;;;;;8.70;5.93;;;;;;;;;;10027675;28;20052;-66
2022/11/01 00:47:16;;;;;;;11.05;6.63;;;;;;;;;;10027534;28;20053;-65
2022/11/01 00:52:11;;;;;;;11.10;7.18;;;;;;;;;;10027183;28;20100;-65
2022/11/01 00:57:05;;;;;;;11.80;6.90;;;;;;;;;;10026817;28;20137;-65
2022/11/01 01:02:00;;;;;;;17.38;7.80;;;;;;;;;;10027294;28;20503;-64
2022/11/01 01:06:54;;;;;;;10.55;8.18;;;;;;;;;;10027479;28;20061;-64
2022/11/01 01:11:46;;;;;;;12.52;7.53;;;;;;;;;;10026703;28;20482;-64
2022/11/01 01:16:39;;;;;;;7.70;5.95;;;;;;;;;;10027448;28;20547;-65
2022/11/01 01:21:33;;;;;;;13.57;7.75;;;;;;;;;;10026113;28;20096;-65
2022/11/01 01:26:27;;;;;;;14.60;6.72;;;;;;;;;;10026768;28;20057;-65
2022/11/01 01:31:20;;;;;;;14.35;9.45;;;;;;;;;;10025808;28;20058;-65
2022/11/01 01:36:15;;;;;;;23.20;10.63;;;;;;;;;;10026759;28;20420;-64
2022/11/01 01:46:20;;;;;;;9.45;6.30;;;;;;;;;;10025705;28;20046;-65
2022/11/01 01:51:16;;;;;;;12.05;6.25;;;;;;;;;;10025765;28;20136;-64
2022/11/01 01:56:31;;;;;;;9.07;5.90;;;;;;;;;;10025814;28;20053;-65
2022/11/01 02:01:25;;;;;;;11.05;6.40;;;;;;;;;;10025849;28;20046;-65
2022/11/01 02:06:20;;;;;;;8.73;5.00;;;;;;;;;;10024198;28;20136;-65
2022/11/01 02:11:16;;;;;;;6.90;4.95;;;;;;;;;;10024853;28;20092;-66
2022/11/01 02:16:27;;;;;;;6.90;4.65;;;;;;;;;;10025430;28;20064;-65
2022/11/01 02:21:48;;;;;;;7.25;4.30;;;;;;;;;;10017049;28;20096;-66
2022/11/01 02:26:49;;;;;;;16.13;6.45;;;;;;;;;;10023412;28;20061;-65
2022/11/01 02:31:57;;;;;;;6.55;4.53;;;;;;;;;;10023846;28;20053;-65
2022/11/01 02:37:19;;;;;;;8.02;5.25;;;;;;;;;;10024901;28;20072;-66
2022/11/01 02:42:29;;;;;;;10.82;6.07;;;;;;;;;;10022187;28;20104;-66
2022/11/01 02:47:23;;;;;;;7.22;3.90;;;;;;;;;;10040515;28;20459;-65
2022/11/01 02:52:26;;;;;;;14.38;5.00;;;;;;;;;;10024528;28;20077;-65
2022/11/01 02:57:34;;;;;;;8.73;4.15;;;;;;;;;;10031208;28;20116;-66
2022/11/01 03:02:38;;;;;;;9.30;5.93;;;;;;;;;;10032309;28;20077;-66
2022/11/01 03:07:33;;;;;;;11.45;5.88;;;;;;;;;;10032002;28;20133;-65
2022/11/01 03:12:28;;;;;;;8.32;4.32;;;;;;;;;;10031967;28;20413;-66
2022/11/01 03:17:33;;;;;;;8.93;5.00;;;;;;;;;;10030262;28;20077;-66
2022/11/01 03:22:29;;;;;;;6.40;5.10;;;;;;;;;;10029616;28;20089;-66
2022/11/01 03:27:42;;;;;;;6.47;5.53;;;;;;;;;;10030436;28;20054;-66
2022/11/01 03:32:49;;;;;;;11.88;6.38;;;;;;;;;;10031202;28;20073;-66
2022/11/01 03:37:45;;;;;;;7.35;5.03;;;;;;;;;;10029427;28;20084;-66
2022/11/01 03:42:38;;;;;;;8.18;4.53;;;;;;;;;;10030070;28;20140;-66
2022/11/01 03:47:31;;;;;;;11.07;4.32;;;;;;;;;;10028787;28;20111;-67
2022/11/01 03:52:25;;;;;;;6.47;4.32;;;;;;;;;;10029483;28;20493;-66
2022/11/01 03:57:18;;;;;;;6.38;4.07;;;;;;;;;;10028567;28;20125;-66
2022/11/01 04:02:13;;;;;;;7.60;4.40;;;;;;;;;;10029658;28;20593;-66
2022/11/01 04:07:08;;;;;;;11.50;3.80;;;;;;;;;;10028412;28;20383;-66
2022/11/01 04:12:01;;;;;;;7.57;4.18;;;;;;;;;;10019440;28;20481;-66
2022/11/01 04:22:07;;;;;;;8.68;5.28;;;;;;;;;;10028623;28;20057;-65
2022/11/01 04:27:01;;;;;;;7.85;4.97;;;;;;;;;;10027610;28;20054;-65
2022/11/01 04:31:55;;;;;;;8.25;5.18;;;;;;;;;;10028830;28;20464;-65
2022/11/01 04:36:49;;;;;;;10.52;5.70;;;;;;;;;;10026852;28;20041;-65
2022/11/01 04:41:42;;;;;;;9.93;4.47;;;;;;;;;;10005796;28;20053;-65
2022/11/01 04:46:36;;;;;;;5.68;3.80;;;;;;;;;;10019042;28;20069;-65
2022/11/01 04:51:30;;;;;;;6.93;3.50;;;;;;;;;;10021787;28;20073;-65
2022/11/01 04:56:24;;;;;;;3.58;2.85;;;;;;;;;;10019210;28;20076;-65
2022/11/01 05:01:18;;;;;;;3.03;2.63;;;;;;;;;;10020226;28;20046;-65
2022/11/01 05:06:12;;;;;;;3.92;3.08;;;;;;;;;;10018835;28;20056;-65
2022/11/01 05:11:06;;;;;;;4.18;2.67;;;;;;;;;;10023749;28;21469;-65
2022/11/01 05:16:02;;;;;;;5.25;2.72;;;;;;;;;;10026295;28;20077;-65
2022/11/01 05:21:13;;;;;;;5.78;3.63;;;;;;;;;;10026211;28;20417;-65
2022/11/01 05:26:06;;;;;;;6.45;3.33;;;;;;;;;;10026749;28;20112;-65
2022/11/01 05:30:59;;;;;;;4.55;3.15;;;;;;;;;;10026373;28;20050;-65
2022/11/01 05:35:53;;;;;;;4.25;2.70;;;;;;;;;;10025798;28;20124;-65
2022/11/01 05:40:47;;;;;;;3.00;2.65;;;;;;;;;;10025983;28;20049;-66
2022/11/01 05:45:41;;;;;;;3.90;2.17;;;;;;;;;;10025388;28;20045;-65
2022/11/01 05:50:35;;;;;;;4.72;2.75;;;;;;;;;;10024991;28;20061;-65
2022/11/01 05:55:30;;;;;;;6.38;3.03;;;;;;;;;;10025399;28;21132;-65
2022/11/01 06:00:24;;;;;;;5.95;3.40;;;;;;;;;;10025833;28;20487;-65
2022/11/01 06:05:17;;;;;;;6.93;3.38;;;;;;;;;;10023684;28;20054;-65
2022/11/01 06:10:11;;;;;;;4.55;2.85;;;;;;;;;;10026208;28;20501;-65
2022/11/01 06:15:06;;;;;;;4.70;3.35;;;;;;;;;;10025420;28;20042;-65
2022/11/01 06:20:01;;;;;;;3.47;2.88;;;;;;;;;;10020721;28;20405;-64
2022/11/01 06:24:55;;;;;;;5.80;2.90;;;;;;;;;;10020020;28;20065;-63
2022/11/01 06:29:49;;;;;;;4.70;2.20;;;;;;;;;;10022599;28;20046;-64
2022/11/01 06:34:43;;;;;;;4.68;2.67;;;;;;;;;;10024020;28;20108;-64
2022/11/01 06:39:36;;;;;;;4.90;2.40;;;;;;;;;;10018840;28;20471;-64
2022/11/01 06:44:31;;;;;;;6.32;2.90;;;;;;;;;;10028828;28;20469;-66
2022/11/01 06:49:28;;;;;;;6.22;2.83;;;;;;;;;;10031784;28;20054;-64
2022/11/01 06:54:22;;;;;;;4.35;2.78;;;;;;;;;;10031605;28;20462;-67
2022/11/01 06:59:15;;;;;;;4.72;2.70;;;;;;;;;;10031614;28;20076;-64
2022/11/01 07:04:09;;;;;;;10.93;3.10;;;;;;;;;;10031062;28;20497;-64
2022/11/01 07:09:03;;;;;;;4.00;3.08;;;;;;;;;;10031292;28;20044;-65
2022/11/01 07:13:58;;;;;;;4.80;2.85;;;;;;;;;;10026536;28;20076;-65
2022/11/01 07:18:51;;;;;;;7.20;2.88;;;;;;;;;;10031000;28;20050;-66
2022/11/01 07:23:45;;;;;;;6.25;2.70;;;;;;;;;;10030381;28;20073;-66
2022/11/01 07:28:39;;;;;;;6.20;2.72;;;;;;;;;;10030168;28;20079;-66
2022/11/01 07:33:33;;;;;;;11.85;2.47;;;;;;;;;;10030156;28;20081;-68
2022/11/01 07:38:27;;;;;;;7.72;3.10;;;;;;;;;;10029482;28;20045;-64
2022/11/01 07:43:21;;;;;;;9.80;2.47;;;;;;;;;;10028862;28;20076;-67
2022/11/01 07:48:16;;;;;;;5.75;2.80;;;;;;;;;;10030088;28;20394;-68
2022/11/01 07:53:17;;;;;;;8.00;2.30;;;;;;;;;;10029939;28;20466;-68
2022/11/01 07:58:12;;;;;;;7.78;2.20;;;;;;;;;;10027643;28;20049;-68
2022/11/01 08:03:26;;;;;;;2.72;1.92;;;;;;;;;;10027739;28;20053;-66
2022/11/01 08:08:20;;;;;;;7.60;2.42;;;;;;;;;;10017800;28;20073;-66
2022/11/01 08:13:21;;;;;;;5.07;2.75;;;;;;;;;;10025217;28;20104;-66
2022/11/01 08:18:15;;;;;;;10.10;2.55;;;;;;;;;;10025817;28;20068;-64
2022/11/01 08:23:09;;;;;;;12.38;3.28;;;;;;;;;;10029159;28;20489;-62
2022/11/01 08:28:04;;;;;;;7.32;3.00;;;;;;;;;;10016881;28;20104;-65
2022/11/01 08:32:59;;;;;;;8.70;3.70;;;;;;;;;;10028243;28;20062;-64
2022/11/01 08:37:55;;;;;;;11.93;4.53;;;;;;;;;;10027735;28;20505;-64
2022/11/01 08:42:48;;;;;;;5.10;3.10;;;;;;;;;;10027324;28;20047;-65
2022/11/01 08:47:42;;;;;;;7.13;3.50;;;;;;;;;;10027520;28;20081;-64
2022/11/01 08:52:36;;;;;;;4.32;2.83;;;;;;;;;;10026863;28;20061;-64
2022/11/01 08:57:30;;;;;;;5.32;2.47;;;;;;;;;;10028095;28;20050;-67
2022/11/01 09:02:23;;;;;;;4.68;3.08;;;;;;;;;;10026671;28;20060;-64
2022/11/01 09:07:17;;;;;;;5.30;3.20;;;;;;;;;;10026618;28;20065;-64
2022/11/01 09:12:11;;;;;;;8.55;3.72;;;;;;;;;;10027032;28;20049;-64
2022/11/01 09:17:06;;;;;;;11.88;3.22;;;;;;;;;;10026709;28;20136;-64
2022/11/01 09:22:01;;;;;;;13.60;4.72;;;;;;;;;;10025016;28;20069;-63
2022/11/01 09:26:55;;;;;;;12.40;4.80;;;;;;;;;;10026220;28;20038;-63
2022/11/01 09:31:52;;;;;;;13.43;5.35;;;;;;;;;;10018659;28;20045;-65
2022/11/01 09:36:46;;;;;;;10.85;5.65;;;;;;;;;;10011299;28;20065;-64
2022/11/01 09:41:46;;;;;;;12.52;6.05;;;;;;;;;;10018370;28;20101;-64
2022/11/01 09:46:44;;;;;;;13.65;6.70;;;;;;;;;;10020035;28;20116;-64
2022/11/01 09:51:39;;;;;;;13.55;7.38;;;;;;;;;;10022902;28;20137;-65
2022/11/01 09:57:30;;;;;;;9.80;5.72;;;;;;;;;;10014082;28;20060;-65
2022/11/01 10:02:49;;;;;;;12.15;5.93;;;;;;;;;;10005435;28;20058;-65
2022/11/01 10:07:44;;;;;;;11.75;6.95;;;;;;;;;;10018527;28;20057;-66
2022/11/01 10:12:59;;;;;;;15.93;6.35;;;;;;;;;;10017504;28;20057;-64
2022/11/01 10:17:54;;;;;;;12.43;6.90;;;;;;;;;;10022610;28;20129;-65
2022/11/01 10:22:49;;;;;;;15.23;9.38;;;;;;;;;;10027379;28;20132;-63
2022/11/01 10:28:00;;;;;;;10.57;6.28;;;;;;;;;;10023842;28;20130;-64
2022/11/01 10:33:00;;;;;;;12.85;7.55;;;;;;;;;;10016286;28;20061;-68
2022/11/01 10:37:59;;;;;;;21.23;10.93;;;;;;;;;;10027947;28;20161;-67
2022/11/01 10:43:19;;;;;;;17.17;13.05;;;;;;;;;;10030358;28;20073;-66
2022/11/01 10:48:36;;;;;;;25.30;14.70;;;;;;;;;;10029761;28;20133;-66
2022/11/01 10:53:33;;;;;;;25.92;16.55;;;;;;;;;;10023546;28;20045;-66
2022/11/01 10:58:32;;;;;;;27.38;12.48;;;;;;;;;;10018955;28;20046;-66
2022/11/01 11:03:28;;;;;;;24.75;14.70;;;;;;;;;;10022735;28;20460;-68
2022/11/01 11:08:23;;;;;;;29.75;16.65;;;;;;;;;;10005887;28;20053;-67
2022/11/01 11:13:20;;;;;;;35.33;23.92;;;;;;;;;;10009399;28;20054;-67
2022/11/01 11:19:00;;;;;;;20.77;12.23;;;;;;;;;;10023838;28;20054;-67
2022/11/01 11:24:18;;;;;;;20.70;10.30;;;;;;;;;;10028438;28;20124;-68
2022/11/01 11:29:50;;;;;;;16.38;9.95;;;;;;;;;;10018198;28;20060;-67
2022/11/01 11:34:51;;;;;;;19.65;10.85;;;;;;;;;;10030401;28;20050;-67
2022/11/01 11:40:09;;;;;;;16.65;10.07;;;;;;;;;;10028384;28;20485;-66
2022/11/01 11:45:28;;;;;;;18.88;7.88;;;;;;;;;;10013526;28;20514;-65
2022/11/01 11:50:31;;;;;;;30.10;19.52;;;;;;;;;;10011992;28;20520;-65
2022/11/01 11:55:33;;;;;;;14.23;7.90;;;;;;;;;;10001060;28;20053;-65
2022/11/01 12:00:28;;;;;;;17.58;6.75;;;;;;;;;;9996611;28;20054;-65
2022/11/01 12:05:25;;;;;;;17.85;7.95;;;;;;;;;;9998479;28;20146;-65
2022/11/01 12:10:31;;;;;;;12.75;7.78;;;;;;;;;;10012093;28;20073;-65
2022/11/01 12:15:29;;;;;;;30.13;9.57;;;;;;;;;;10022699;28;20046;-65
2022/11/01 12:20:35;;;;;;;16.05;9.00;;;;;;;;;;9998800;28;20065;-65
2022/11/01 12:25:29;;;;;;;13.13;6.35;;;;;;;;;;9998217;28;20387;-64
2022/11/01 12:30:23;;;;;;;15.52;6.07;;;;;;;;;;10010903;28;20050;-65
2022/11/01 12:35:24;;;;;;;11.35;5.95;;;;;;;;;;10021015;28;20057;-65
2022/11/01 12:40:33;;;;;;;17.50;6.47;;;;;;;;;;10018596;28;20410;-65
2022/11/01 12:45:41;;;;;;;15.10;6.55;;;;;;;;;;10033890;28;20426;-66
2022/11/01 12:50:40;;;;;;;18.58;7.20;;;;;;;;;;10014817;28;20127;-67
2022/11/01 12:55:39;;;;;;;13.88;6.70;;;;;;;;;;10014418;28;20417;-67
2022/11/01 13:01:06;;;;;;;13.13;7.77;;;;;;;;;;10014632;28;20058;-66
2022/11/01 13:06:14;;;;;;;21.45;7.45;;;;;;;;;;10012089;28;20064;-69
2022/11/01 13:11:18;;;;;;;17.00;7.40;;;;;;;;;;10006879;28;20076;-69
2022/11/01 13:16:13;;;;;;;11.38;7.40;;;;;;;;;;10014246;28;20053;-66
2022/11/01 13:21:35;;;;;;;15.20;8.77;;;;;;;;;;10015580;28;20085;-66
2022/11/01 13:26:50;;;;;;;13.40;7.38;;;;;;;;;;10013629;28;20140;-67
2022/11/01 13:31:56;;;;;;;15.75;8.20;;;;;;;;;;10016840;28;20054;-67
2022/11/01 13:37:12;;;;;;;16.70;7.60;;;;;;;;;;10012334;28;20052;-66
2022/11/01 13:42:24;;;;;;;18.63;10.05;;;;;;;;;;10014163;28;20058;-67
2022/11/01 13:47:26;;;;;;;10.73;7.97;;;;;;;;;;10018962;28;20066;-66
2022/11/01 13:52:21;;;;;;;19.45;7.60;;;;;;;;;;10017477;28;20042;-65
2022/11/01 13:57:16;;;;;;;12.07;7.97;;;;;;;;;;10016055;28;20069;-67
2022/11/01 14:02:51;;;;;;;12.25;6.55;;;;;;;;;;10007710;28;20498;-67
2022/11/01 14:07:44;;;;;;;15.82;7.55;;;;;;;;;;10017274;28;20128;-68
2022/11/01 14:12:40;;;;;;;18.58;7.35;;;;;;;;;;10012162;28;20065;-67
2022/11/01 14:17:55;;;;;;;11.75;6.53;;;;;;;;;;10014223;28;20048;-68
2022/11/01 14:22:48;;;;;;;13.25;6.95;;;;;;;;;;10012941;28;20050;-68
2022/11/01 14:27:48;;;;;;;15.13;6.90;;;;;;;;;;10016658;28;20050;-67
2022/11/01 14:33:09;;;;;;;14.88;6.38;;;;;;;;;;10018399;28;20050;-67
2022/11/01 14:38:06;;;;;;;16.67;6.83;;;;;;;;;;10018503;28;20065;-69
2022/11/01 14:43:09;;;;;;;17.75;7.18;;;;;;;;;;10015009;28;20052;-68
2022/11/01 14:48:09;;;;;;;14.68;7.68;;;;;;;;;;10004484;28;20054;-68
2022/11/01 14:53:08;;;;;;;19.48;10.32;;;;;;;;;;10016273;28;20136;-68
2022/11/01 14:58:08;;;;;;;17.88;8.55;;;;;;;;;;10034998;28;20120;-68
2022/11/01 15:03:07;;;;;;;14.73;8.15;;;;;;;;;;10015025;28;20062;-68
2022/11/01 15:08:01;;;;;;;19.80;9.38;;;;;;;;;;10021616;28;20405;-68
2022/11/01 15:13:03;;;;;;;17.95;8.25;;;;;;;;;;10023810;28;20060;-68
2022/11/01 15:17:58;;;;;;;18.30;8.00;;;;;;;;;;10019849;28;20052;-68
2022/11/01 15:22:56;;;;;;;19.15;8.75;;;;;;;;;;10021171;28;20108;-68
2022/11/01 15:27:50;;;;;;;17.67;8.15;;;;;;;;;;10019789;28;20046;-67
2022/11/01 15:32:44;;;;;;;21.75;8.75;;;;;;;;;;10020295;28;20058;-68
2022/11/01 15:37:38;;;;;;;13.43;7.72;;;;;;;;;;10019052;28;20054;-68
2022/11/01 15:42:33;;;;;;;25.00;8.20;;;;;;;;;;10017187;28;20565;-68
2022/11/01 15:47:28;;;;;;;11.75;8.38;;;;;;;;;;10019951;28;20056;-68
2022/11/01 15:52:30;;;;;;;17.80;9.55;;;;;;;;;;10012280;28;20124;-67
2022/11/01 15:57:42;;;;;;;13.10;8.10;;;;;;;;;;10030201;28;20061;-67
2022/11/01 16:03:02;;;;;;;20.65;9.43;;;;;;;;;;10009980;28;20050;-67
2022/11/01 16:08:16;;;;;;;18.45;9.05;;;;;;;;;;10014118;28;20136;-66
2022/11/01 16:13:18;;;;;;;22.20;16.30;;;;;;;;;;10017247;28;20054;-67
2022/11/01 16:18:34;;;;;;;29.10;16.40;;;;;;;;;;10023492;28;20058;-67
2022/11/01 16:23:27;;;;;;;24.42;14.30;;;;;;;;;;10019614;28;20192;-66
2022/11/01 16:28:22;;;;;;;20.00;10.38;;;;;;;;;;10016816;28;20058;-66
2022/11/01 16:33:19;;;;;;;19.20;9.60;;;;;;;;;;10019855;28;20054;-66
2022/11/01 16:38:21;;;;;;;16.15;10.82;;;;;;;;;;10020721;28;20425;-67
2022/11/01 16:43:16;;;;;;;17.95;11.32;;;;;;;;;;10021013;28;20080;-66
2022/11/01 16:48:28;;;;;;;24.63;11.70;;;;;;;;;;10018917;28;20513;-66
2022/11/01 16:53:43;;;;;;;24.67;13.30;;;;;;;;;;10015911;28;20081;-67
2022/11/01 16:58:35;;;;;;;17.27;11.43;;;;;;;;;;10017352;28;20128;-66
2022/11/01 17:03:29;;;;;;;13.20;11.55;;;;;;;;;;10015493;28;20069;-67
2022/11/01 17:08:24;;;;;;;14.75;11.88;;;;;;;;;;10013575;28;20080;-67
2022/11/01 17:13:17;;;;;;;14.85;11.07;;;;;;;;;;10015464;28;20058;-67
2022/11/01 17:18:31;;;;;;;17.70;11.25;;;;;;;;;;10013620;28;20049;-67
2022/11/01 17:23:25;;;;;;;18.73;13.07;;;;;;;;;;10013912;28;20054;-67
2022/11/01 17:28:20;;;;;;;21.75;11.63;;;;;;;;;;10028557;28;20515;-67
2022/11/01 17:33:13;;;;;;;22.05;14.63;;;;;;;;;;10018340;28;20053;-67
2022/11/01 17:38:13;;;;;;;27.55;13.20;;;;;;;;;;10017140;28;20113;-65
2022/11/01 17:43:09;;;;;;;21.35;13.13;;;;;;;;;;10016361;28;20119;-66
2022/11/01 17:48:02;;;;;;;22.40;13.93;;;;;;;;;;10014692;28;20050;-65
2022/11/01 17:52:58;;;;;;;30.20;15.35;;;;;;;;;;10016552;28;20513;-65
2022/11/01 17:57:53;;;;;;;20.90;14.63;;;;;;;;;;10015273;28;20061;-65
2022/11/01 18:02:48;;;;;;;31.85;14.73;;;;;;;;;;10013555;28;20050;-67
2022/11/01 18:07:42;;;;;;;25.80;14.30;;;;;;;;;;10021236;28;20054;-65
2022/11/01 18:12:42;;;;;;;30.27;14.63;;;;;;;;;;10012582;28;20077;-66
2022/11/01 18:17:48;;;;;;;21.15;12.48;;;;;;;;;;10020379;28;20085;-66
2022/11/01 18:22:50;;;;;;;21.83;13.85;;;;;;;;;;10016156;28;20064;-66
2022/11/01 18:27:44;;;;;;;29.70;14.32;;;;;;;;;;10029156;28;20137;-68
2022/11/01 18:33:18;;;;;;;25.92;14.55;;;;;;;;;;10031675;28;20133;-67
2022/11/01 18:38:15;;;;;;;30.30;15.38;;;;;;;;;;10015739;28;20061;-66
2022/11/01 18:43:12;;;;;;;27.52;14.88;;;;;;;;;;10032025;28;20062;-68
2022/11/01 18:48:10;;;;;;;26.58;16.95;;;;;;;;;;10031328;28;20054;-66
2022/11/01 18:53:16;;;;;;;21.25;14.40;;;;;;;;;;10030129;28;20074;-69
2022/11/01 18:58:19;;;;;;;26.38;13.95;;;;;;;;;;10031586;28;20116;-66
2022/11/01 19:03:15;;;;;;;25.80;15.35;;;;;;;;;;10026822;28;20056;-68
2022/11/01 19:08:23;;;;;;;28.27;14.95;;;;;;;;;;10027588;28;20050;-67
2022/11/01 19:13:24;;;;;;;26.35;14.45;;;;;;;;;;10028785;28;20137;-69
2022/11/01 19:18:22;;;;;;;20.38;16.08;;;;;;;;;;10028799;28;20050;-66
2022/11/01 19:23:20;;;;;;;18.45;13.65;;;;;;;;;;10029572;28;20053;-66
2022/11/01 19:28:37;;;;;;;20.67;13.38;;;;;;;;;;10030176;28;20404;-62
2022/11/01 19:33:36;;;;;;;22.63;13.45;;;;;;;;;;10052207;28;20062;-64
2022/11/01 19:38:29;;;;;;;19.27;14.55;;;;;;;;;;10028696;28;20064;-67
2022/11/01 19:43:24;;;;;;;22.92;14.13;;;;;;;;;;10028829;28;20506;-64
2022/11/01 19:48:22;;;;;;;26.80;15.18;;;;;;;;;;10025288;28;20053;-63
2022/11/01 19:53:29;;;;;;;;;;;;;;;;;;10028485;28;20136;-65
2022/11/01 19:58:25;;;;;;;24.90;14.20;;;;;;;;;;10028256;28;20008;-65
2022/11/01 20:03:59;;;;;;;24.67;14.27;;;;;;;;;;10029735;28;20497;-65
2022/11/01 20:08:56;;;;;;;25.80;16.15;;;;;;;;;;10021126;28;20050;-66
2022/11/01 20:13:50;;;;;;;19.33;14.68;;;;;;;;;;10029463;28;20100;-67
2022/11/01 20:18:44;;;;;;;21.38;14.80;;;;;;;;;;10028835;28;20054;-65
2022/11/01 20:23:38;;;;;;;25.42;15.02;;;;;;;;;;10028671;28;20065;-66
2022/11/01 20:28:32;;;;;;;21.13;13.55;;;;;;;;;;10026644;28;20077;-65
2022/11/01 20:33:25;;;;;;;21.75;14.98;;;;;;;;;;10027871;28;20120;-65
2022/11/01 20:38:21;;;;;;;21.00;14.88;;;;;;;;;;10026644;28;20140;-68
2022/11/01 20:43:15;;;;;;;22.15;15.60;;;;;;;;;;10011988;28;20058;-67
2022/11/01 20:48:08;;;;;;;30.45;15.98;;;;;;;;;;10014391;28;20107;-67
2022/11/01 20:53:03;;;;;;;22.48;16.10;;;;;;;;;;10015422;28;20046;-67
2022/11/01 20:57:58;;;;;;;25.45;15.35;;;;;;;;;;10018985;28;20084;-68
2022/11/01 21:02:53;;;;;;;23.25;15.80;;;;;;;;;;10021573;28;20056;-68
2022/11/01 21:07:46;;;;;;;22.38;14.70;;;;;;;;;;10017114;28;20064;-67
2022/11/01 21:12:43;;;;;;;17.38;13.70;;;;;;;;;;10016566;28;20050;-67
2022/11/01 21:17:37;;;;;;;20.10;13.20;;;;;;;;;;10013940;28;20494;-68
2022/11/01 21:22:30;;;;;;;32.67;15.68;;;;;;;;;;10010189;28;20108;-68
2022/11/01 21:27:33;;;;;;;34.20;17.70;;;;;;;;;;10011247;28;20397;-68
2022/11/01 21:32:37;;;;;;;21.02;15.13;;;;;;;;;;10019591;28;20137;-68
2022/11/01 21:37:37;;;;;;;28.70;13.07;;;;;;;;;;10019647;28;20084;-67
2022/11/01 21:42:51;;;;;;;20.63;13.23;;;;;;;;;;10021181;28;20056;-67
2022/11/01 21:47:44;;;;;;;17.63;13.82;;;;;;;;;;10018020;28;20497;-67
2022/11/01 21:52:38;;;;;;;18.95;14.38;;;;;;;;;;10017678;28;20050;-68
2022/11/01 21:57:32;;;;;;;17.58;14.00;;;;;;;;;;10017558;28;20073;-67
2022/11/01 22:02:27;;;;;;;21.17;13.48;;;;;;;;;;10020325;28;20058;-67
2022/11/01 22:07:21;;;;;;;18.15;15.27;;;;;;;;;;10013848;28;20050;-67
2022/11/01 22:12:14;;;;;;;23.20;14.32;;;;;;;;;;10019257;28;20050;-67
2022/11/01 22:17:08;;;;;;;21.08;16.38;;;;;;;;;;10023067;28;20065;-68
2022/11/01 22:22:02;;;;;;;23.73;14.43;;;;;;;;;;10023962;28;20057;-67
2022/11/01 22:26:56;;;;;;;18.42;13.00;;;;;;;;;;10024334;28;20515;-67
2022/11/01 22:31:50;;;;;;;16.95;14.20;;;;;;;;;;10025430;28;20054;-68
2022/11/01 22:36:44;;;;;;;24.15;13.77;;;;;;;;;;10019552;28;20064;-67
2022/11/01 22:41:39;;;;;;;21.30;13.32;;;;;;;;;;10025215;28;20081;-67
2022/11/01 22:46:42;;;;;;;22.27;13.18;;;;;;;;;;10024742;28;20055;-67
2022/11/01 22:52:10;;;;;;;18.20;13.48;;;;;;;;;;10023073;28;20054;-67
2022/11/01 22:57:11;;;;;;;18.85;13.07;;;;;;;;;;10001951;28;20054;-67
2022/11/01 23:02:15;;;;;;;19.85;13.40;;;;;;;;;;10023548;28;20085;-67
2022/11/01 23:07:25;;;;;;;21.63;14.52;;;;;;;;;;10017243;28;20050;-67
2022/11/01 23:17:36;;;;;;;26.35;12.30;;;;;;;;;;10031755;28;20413;-67
2022/11/01 23:22:34;;;;;;;19.75;13.02;;;;;;;;;;10030656;28;20509;-67
2022/11/01 23:27:29;;;;;;;20.17;12.23;;;;;;;;;;10031066;28;20046;-67
2022/11/01 23:32:24;;;;;;;28.00;12.00;;;;;;;;;;10030943;28;20082;-69
2022/11/01 23:37:21;;;;;;;19.73;11.88;;;;;;;;;;10031383;28;20054;-68
2022/11/01 23:42:37;;;;;;;21.95;12.52;;;;;;;;;;10031073;28;20137;-68
2022/11/01 23:47:36;;;;;;;15.38;12.48;;;;;;;;;;10030156;28;20188;-68
2022/11/01 23:52:39;;;;;;;;;;;;;;;;;;10030461;28;20050;-68
2022/11/01 23:57:33;;;;;;;21.50;12.32;;;;;;;;;;10061717;28;20008;-70
